createdAt,value
2023-05-04T00:00:36.611Z,35.33
2023-05-04T00:02:38.564Z,35.25
2023-05-04T00:04:41.873Z,34.56
2023-05-04T00:06:44.939Z,34.78
2023-05-04T00:08:47.650Z,34.93
2023-05-04T00:10:49.249Z,35.14
2023-05-04T00:12:51.177Z,35.58
2023-05-04T00:14:52.932Z,35.24
2023-05-04T00:16:54.814Z,35.99
2023-05-04T00:18:56.501Z,35.83
2023-05-04T00:20:58.374Z,35.89
2023-05-04T00:23:02.834Z,36.43
2023-05-04T00:25:06.811Z,36.38
2023-05-04T00:27:08.732Z,36.79
2023-05-04T00:29:10.310Z,36.45
2023-05-04T00:31:12.018Z,37.19
2023-05-04T00:33:13.772Z,36.58
2023-05-04T00:35:15.478Z,36.90
2023-05-04T00:37:18.720Z,37.23
2023-05-04T00:39:21.950Z,37.39
2023-05-04T00:41:23.627Z,37.07
2023-05-04T00:43:25.748Z,37.54
2023-05-04T00:45:29.255Z,38.20
2023-05-04T00:47:31.908Z,37.73
2023-05-04T00:49:34.549Z,37.52
2023-05-04T00:51:37.136Z,38.04
2023-05-04T00:53:39.200Z,38.09
2023-05-04T00:55:42.613Z,38.12
2023-05-04T00:57:44.622Z,37.50
2023-05-04T00:59:46.706Z,37.95
2023-05-04T01:01:55.226Z,37.45
2023-05-04T01:03:57.257Z,38.04
2023-05-04T01:06:08.273Z,37.86
2023-05-04T01:08:15.112Z,37.49
2023-05-04T01:10:22.627Z,37.71
2023-05-04T01:12:36.531Z,37.50
2023-05-04T01:14:39.586Z,36.84
2023-05-04T01:16:41.464Z,37.84
2023-05-04T01:18:43.107Z,36.58
2023-05-04T01:20:44.957Z,36.96
2023-05-04T01:22:48.429Z,37.66
2023-05-04T01:24:50.856Z,37.35
2023-05-04T01:26:56.551Z,37.52
2023-05-04T01:29:04.855Z,36.96
2023-05-04T01:31:09.425Z,37.51
2023-05-04T01:33:12.261Z,35.67
2023-05-04T01:35:14.128Z,35.28
2023-05-04T01:37:16.156Z,35.14
2023-05-04T01:39:19.456Z,35.17
2023-05-04T01:41:20.958Z,35.21
2023-05-04T01:43:22.909Z,35.41
2023-05-04T01:45:24.812Z,35.62
2023-05-04T01:47:27.088Z,36.24
2023-05-04T01:49:29.991Z,36.96
2023-05-04T01:51:31.622Z,37.02
2023-05-04T01:53:33.217Z,36.94
2023-05-04T01:55:36.390Z,37.19
2023-05-04T01:57:38.037Z,36.25
2023-05-04T01:59:39.779Z,36.91
2023-05-04T02:01:41.579Z,36.69
2023-05-04T02:03:43.518Z,37.17
2023-05-04T02:05:45.453Z,37.37
2023-05-04T02:07:47.148Z,37.49
2023-05-04T02:09:49.264Z,37.52
2023-05-04T02:11:53.463Z,37.64
2023-05-04T02:13:56.557Z,37.50
2023-05-04T02:15:58.221Z,37.67
2023-05-04T02:18:00.066Z,37.10
2023-05-04T02:20:01.857Z,37.53
2023-05-04T02:22:05.938Z,38.31
2023-05-04T02:24:07.715Z,37.51
2023-05-04T02:26:09.339Z,37.94
2023-05-04T02:28:12.329Z,37.59
2023-05-04T02:30:14.800Z,38.33
2023-05-04T02:32:19.861Z,38.47
2023-05-04T02:34:21.951Z,38.42
2023-05-04T02:36:23.580Z,38.73
2023-05-04T02:38:26.116Z,38.05
2023-05-04T02:40:28.024Z,39.10
2023-05-04T02:42:29.902Z,38.51
2023-05-04T02:44:33.166Z,39.26
2023-05-04T02:46:35.216Z,39.44
2023-05-04T02:48:38.293Z,39.36
2023-05-04T02:50:40.582Z,39.29
2023-05-04T02:52:42.517Z,38.72
2023-05-04T02:54:44.140Z,38.38
2023-05-04T02:56:46.040Z,38.29
2023-05-04T02:58:48.064Z,38.15
2023-05-04T03:00:55.269Z,38.45
2023-05-04T03:02:57.215Z,39.20
2023-05-04T03:05:01.761Z,39.17
2023-05-04T03:07:03.776Z,39.28
2023-05-04T03:09:05.520Z,39.20
2023-05-04T03:11:07.222Z,39.27
2023-05-04T03:13:08.939Z,39.94
2023-05-04T03:15:10.946Z,39.84
2023-05-04T03:17:15.551Z,39.53
2023-05-04T03:19:17.180Z,39.71
2023-05-04T03:21:19.104Z,39.89
2023-05-04T03:23:22.366Z,40.08
2023-05-04T03:25:23.997Z,40.34
2023-05-04T03:27:25.720Z,40.47
2023-05-04T03:29:29.954Z,40.60
2023-05-04T03:31:31.963Z,40.76
2023-05-04T03:33:37.348Z,41.05
2023-05-04T03:35:39.373Z,41.36
2023-05-04T03:37:41.041Z,41.70
2023-05-04T03:39:42.965Z,42.10
2023-05-04T03:41:45.200Z,41.87
2023-05-04T03:43:47.018Z,42.13
2023-05-04T03:45:48.607Z,42.17
2023-05-04T03:47:50.362Z,41.92
2023-05-04T03:49:53.589Z,41.87
2023-05-04T03:51:55.177Z,41.26
2023-05-04T03:53:59.393Z,40.85
2023-05-04T03:56:01.251Z,40.74
2023-05-04T03:58:03.326Z,40.65
2023-05-04T04:00:07.182Z,40.41
2023-05-04T04:02:09.009Z,40.69
2023-05-04T04:04:12.184Z,40.19
2023-05-04T04:06:15.331Z,40.47
2023-05-04T04:08:17.370Z,40.39
2023-05-04T04:10:19.197Z,40.57
2023-05-04T04:12:21.030Z,40.30
2023-05-04T04:14:23.233Z,40.77
2023-05-04T04:16:24.945Z,41.66
2023-05-04T04:18:26.669Z,41.90
2023-05-04T04:20:28.259Z,41.81
2023-05-04T04:22:33.304Z,41.91
2023-05-04T04:24:35.159Z,41.93
2023-05-04T04:26:36.873Z,42.00
2023-05-04T04:28:38.481Z,42.51
2023-05-04T04:30:40.313Z,42.84
2023-05-04T04:32:41.990Z,42.65
2023-05-04T04:34:43.916Z,42.32
2023-05-04T04:36:45.520Z,42.59
2023-05-04T04:38:48.686Z,42.39
2023-05-04T04:40:50.353Z,42.66
2023-05-04T04:42:52.443Z,42.51
2023-05-04T04:44:54.034Z,43.18
2023-05-04T04:46:55.995Z,42.79
2023-05-04T04:48:57.679Z,42.89
2023-05-04T04:50:59.689Z,42.71
2023-05-04T04:53:01.253Z,43.05
2023-05-04T04:55:04.794Z,42.84
2023-05-04T04:57:06.430Z,42.30
2023-05-04T04:59:09.958Z,43.19
2023-05-04T05:01:11.790Z,44.05
2023-05-04T05:03:16.324Z,44.27
2023-05-04T05:05:18.075Z,44.78
2023-05-04T05:07:19.836Z,44.18
2023-05-04T05:09:21.479Z,44.55
2023-05-04T05:11:24.429Z,44.34
2023-05-04T05:13:26.054Z,44.91
2023-05-04T05:15:27.586Z,45.23
2023-05-04T05:17:29.138Z,44.97
2023-05-04T05:19:30.988Z,45.43
2023-05-04T05:21:32.622Z,45.64
2023-05-04T05:23:34.295Z,46.20
2023-05-04T05:25:35.896Z,46.33
2023-05-04T05:27:38.821Z,46.59
2023-05-04T05:29:40.376Z,46.81
2023-05-04T05:31:41.946Z,47.18
2023-05-04T05:33:43.575Z,46.96
2023-05-04T05:35:45.168Z,46.66
2023-05-04T05:37:49.175Z,46.54
2023-05-04T05:39:50.809Z,46.47
2023-05-04T05:41:56.002Z,47.19
2023-05-04T05:43:59.071Z,47.09
2023-05-04T05:46:00.685Z,47.12
2023-05-04T05:48:02.503Z,47.46
2023-05-04T05:50:04.846Z,48.17
2023-05-04T05:52:06.938Z,47.18
2023-05-04T05:54:08.531Z,47.63
2023-05-04T05:56:10.087Z,47.63
2023-05-04T05:58:11.682Z,47.68
2023-05-04T06:00:16.528Z,47.94
2023-05-04T06:02:18.264Z,47.60
2023-05-04T06:04:20.030Z,47.95
2023-05-04T06:06:21.632Z,47.73
2023-05-04T06:08:23.286Z,48.53
2023-05-04T06:10:25.004Z,49.25
2023-05-04T06:12:26.591Z,49.09
2023-05-04T06:14:28.164Z,49.11
2023-05-04T06:16:31.150Z,48.42
2023-05-04T06:18:32.672Z,48.88
2023-05-04T06:20:34.368Z,48.19
2023-05-04T06:22:35.933Z,48.34
2023-05-04T06:24:37.493Z,49.38
2023-05-04T06:26:39.047Z,48.96
2023-05-04T06:28:40.619Z,49.50
2023-05-04T06:30:42.191Z,50.03
2023-05-04T06:32:45.245Z,48.90
2023-05-04T06:34:46.864Z,48.07
2023-05-04T06:36:48.423Z,48.71
2023-05-04T06:38:50.081Z,48.55
2023-05-04T06:40:51.712Z,48.16
2023-05-04T06:42:53.314Z,47.78
2023-05-04T06:44:55.004Z,46.61
2023-05-04T06:46:56.572Z,46.67
2023-05-04T06:48:59.474Z,46.82
2023-05-04T06:51:02.292Z,46.54
2023-05-04T06:53:07.105Z,46.32
2023-05-04T06:55:09.027Z,46.37
2023-05-04T06:57:10.812Z,45.04
2023-05-04T06:59:12.674Z,44.76
2023-05-04T07:03:16.250Z,44.13
2023-05-04T07:05:19.611Z,44.22
2023-05-04T07:07:21.277Z,44.01
2023-05-04T07:09:22.872Z,43.72
2023-05-04T07:11:24.669Z,42.83
2023-05-04T07:13:26.385Z,42.52
2023-05-04T07:15:28.246Z,41.25
2023-05-04T07:17:32.215Z,41.13
2023-05-04T07:19:34.348Z,40.76
2023-05-04T07:21:37.508Z,39.67
2023-05-04T07:23:39.300Z,40.42
2023-05-04T07:25:40.908Z,40.30
2023-05-04T07:27:42.553Z,39.81
2023-05-04T07:29:44.192Z,40.16
2023-05-04T07:31:45.826Z,39.59
2023-05-04T07:33:48.053Z,39.67
2023-05-04T07:35:49.797Z,38.89
2023-05-04T07:37:53.022Z,39.38
2023-05-04T07:39:54.664Z,38.29
2023-05-04T07:41:56.412Z,39.79
2023-05-04T07:43:58.175Z,39.66
2023-05-04T07:45:59.844Z,38.92
2023-05-04T07:48:01.501Z,39.09
2023-05-04T07:50:03.350Z,39.40
2023-05-04T07:52:05.770Z,39.85
2023-05-04T07:54:08.759Z,38.34
2023-05-04T07:56:11.566Z,38.45
2023-05-04T07:58:13.394Z,39.39
2023-05-04T08:00:15.820Z,37.90
2023-05-04T08:02:17.506Z,38.17
2023-05-04T08:04:19.587Z,37.60
2023-05-04T08:06:21.731Z,38.54
2023-05-04T08:08:23.570Z,39.32
2023-05-04T08:10:26.782Z,39.21
2023-05-04T08:12:28.388Z,37.54
2023-05-04T08:14:30.011Z,38.55
2023-05-04T08:16:31.658Z,38.09
2023-05-04T08:18:33.385Z,37.74
2023-05-04T08:20:35.084Z,37.94
2023-05-04T08:22:37.022Z,38.44
2023-05-04T08:24:38.808Z,38.04
2023-05-04T08:26:43.778Z,38.10
2023-05-04T08:28:47.079Z,38.30
2023-05-04T08:30:48.898Z,37.57
2023-05-04T08:32:50.522Z,36.71
2023-05-04T08:34:52.439Z,36.66
2023-05-04T08:36:54.054Z,37.08
2023-05-04T08:38:55.892Z,36.96
2023-05-04T08:40:57.665Z,36.95
2023-05-04T08:43:00.940Z,37.31
2023-05-04T08:45:02.837Z,35.49
2023-05-04T08:47:04.844Z,35.72
2023-05-04T08:49:09.010Z,36.63
2023-05-04T08:51:11.405Z,35.58
2023-05-04T08:53:13.129Z,34.36
2023-05-04T08:55:18.610Z,34.89
2023-05-04T08:57:22.611Z,34.06
2023-05-04T08:59:28.109Z,32.75
2023-05-04T09:01:31.287Z,32.51
2023-05-04T09:03:34.402Z,31.90
2023-05-04T09:05:36.995Z,32.43
2023-05-04T09:07:38.614Z,32.24
2023-05-04T09:09:40.641Z,32.18
2023-05-04T09:11:43.415Z,31.34
2023-05-04T09:13:45.043Z,32.39
2023-05-04T09:15:55.785Z,31.76
2023-05-04T09:17:58.628Z,31.30
2023-05-04T09:20:01.427Z,31.69
2023-05-04T09:22:13.574Z,31.69
2023-05-04T09:24:25.911Z,32.03
2023-05-04T09:26:28.802Z,31.15
2023-05-04T09:28:35.075Z,30.72
2023-05-04T09:30:36.780Z,31.12
2023-05-04T09:32:46.947Z,30.90
2023-05-04T09:34:50.011Z,31.02
2023-05-04T09:36:58.753Z,32.07
2023-05-04T09:39:11.198Z,31.51
2023-05-04T09:41:13.573Z,30.42
2023-05-04T09:43:15.256Z,30.73
2023-05-04T09:45:17.069Z,30.68
2023-05-04T09:47:18.898Z,30.52
2023-05-04T09:49:31.308Z,30.87
2023-05-04T09:51:32.947Z,29.86
2023-05-04T09:53:40.092Z,30.61
2023-05-04T09:55:45.221Z,30.58
2023-05-04T09:57:48.117Z,29.18
2023-05-04T09:59:50.468Z,30.00
2023-05-04T10:01:53.681Z,30.33
2023-05-04T10:03:58.664Z,29.62
2023-05-04T10:06:04.656Z,30.26
2023-05-04T10:08:08.213Z,30.61
2023-05-04T10:10:12.137Z,29.28
2023-05-04T10:12:13.813Z,30.46
2023-05-04T10:14:15.529Z,30.12
2023-05-04T10:16:27.414Z,29.71
2023-05-04T10:18:41.629Z,30.46
2023-05-04T10:21:06.605Z,30.40
2023-05-04T10:23:32.188Z,29.50
2023-05-04T10:25:59.106Z,29.29
2023-05-04T10:28:10.025Z,30.17
2023-05-04T10:30:14.980Z,29.32
2023-05-04T10:32:20.506Z,30.20
2023-05-04T10:34:29.457Z,29.26
2023-05-04T10:36:36.960Z,28.46
2023-05-04T10:38:39.668Z,28.59
2023-05-04T10:40:41.318Z,29.51
2023-05-04T10:42:43.404Z,31.38
2023-05-04T10:44:52.561Z,30.95
2023-05-04T10:47:00.342Z,29.41
2023-05-04T10:49:02.128Z,30.42
2023-05-04T10:51:03.943Z,30.44
2023-05-04T10:53:07.255Z,31.16
2023-05-04T10:55:09.061Z,31.35
2023-05-04T10:57:12.040Z,29.53
2023-05-04T10:59:13.729Z,28.88
2023-05-04T11:01:22.964Z,29.10
2023-05-04T11:03:25.194Z,30.05
2023-05-04T11:05:27.315Z,30.92
2023-05-04T11:07:35.937Z,29.51
2023-05-04T11:09:45.664Z,30.23
2023-05-04T11:11:48.342Z,29.29
2023-05-04T11:13:50.643Z,29.53
2023-05-04T11:15:52.435Z,30.05
2023-05-04T11:17:54.346Z,28.61
2023-05-04T11:19:56.234Z,27.86
2023-05-04T11:22:01.386Z,28.44
2023-05-04T11:24:06.447Z,28.40
2023-05-04T11:26:12.766Z,29.35
2023-05-04T11:28:14.806Z,30.66
2023-05-04T11:30:18.586Z,29.77
2023-05-04T11:32:20.325Z,29.82
2023-05-04T11:34:22.060Z,30.01
2023-05-04T11:36:30.482Z,28.91
2023-05-04T11:38:32.337Z,28.61
2023-05-04T11:40:35.431Z,27.57
2023-05-04T11:42:39.081Z,27.78
2023-05-04T11:44:40.963Z,28.37
2023-05-04T11:46:42.672Z,29.72
2023-05-04T11:48:44.828Z,29.42
2023-05-04T11:50:46.877Z,28.65
2023-05-04T11:52:49.190Z,28.63
2023-05-04T11:54:57.541Z,27.46
2023-05-04T11:57:04.010Z,29.23
2023-05-04T11:59:11.290Z,27.98
2023-05-04T12:01:15.898Z,28.07
2023-05-04T12:03:25.953Z,27.32
2023-05-04T12:05:31.901Z,28.19
2023-05-04T12:07:36.564Z,26.92
2023-05-04T12:09:44.382Z,28.15
2023-05-04T12:11:53.832Z,27.16
2023-05-04T12:14:03.237Z,27.17
2023-05-04T12:16:13.804Z,26.42
2023-05-04T12:18:30.518Z,27.00
2023-05-04T12:20:35.029Z,26.59
2023-05-04T12:22:36.891Z,26.80
2023-05-04T12:24:38.509Z,25.42
2023-05-04T12:26:43.306Z,24.60
2023-05-04T12:28:45.001Z,24.71
2023-05-04T12:30:46.820Z,23.90
2023-05-04T12:32:50.857Z,23.38
2023-05-04T12:34:52.462Z,22.85
2023-05-04T12:36:54.328Z,22.36
2023-05-04T12:38:55.992Z,22.40
2023-05-04T12:40:58.228Z,21.67
2023-05-04T12:43:01.550Z,22.41
2023-05-04T12:45:03.850Z,21.12
2023-05-04T12:47:05.980Z,20.42
2023-05-04T12:49:09.607Z,20.63
2023-05-04T12:51:11.387Z,21.06
2023-05-04T12:53:13.212Z,21.21
2023-05-04T12:55:14.995Z,19.26
2023-05-04T12:57:16.671Z,19.90
2023-05-04T12:59:18.407Z,19.29
2023-05-04T13:01:20.421Z,19.74
2023-05-04T13:03:22.270Z,18.92
2023-05-04T13:05:26.211Z,19.13
2023-05-04T13:07:27.784Z,18.58
2023-05-04T13:09:29.431Z,18.73
2023-05-04T13:11:31.186Z,17.97
2023-05-04T13:13:32.897Z,17.86
2023-05-04T13:15:34.621Z,18.96
2023-05-04T13:17:36.547Z,19.47
2023-05-04T13:19:38.357Z,18.68
2023-05-04T13:21:41.390Z,18.08
2023-05-04T13:23:43.030Z,18.20
2023-05-04T13:25:44.706Z,19.27
2023-05-04T13:27:46.294Z,17.81
2023-05-04T13:29:47.925Z,18.19
2023-05-04T13:31:50.347Z,19.09
2023-05-04T13:33:54.021Z,18.75
2023-05-04T13:35:55.570Z,18.27
2023-05-04T13:37:58.605Z,18.28
2023-05-04T13:40:00.339Z,17.78
2023-05-04T13:42:01.926Z,18.48
2023-05-04T13:44:03.553Z,16.96
2023-05-04T13:46:05.567Z,17.85
2023-05-04T13:48:07.394Z,18.62
2023-05-04T13:50:09.683Z,18.46
2023-05-04T13:52:11.458Z,17.90
2023-05-04T13:54:14.454Z,17.84
2023-05-04T13:56:16.093Z,16.66
2023-05-04T13:58:17.951Z,16.94
2023-05-04T14:00:20.378Z,17.73
2023-05-04T14:02:22.351Z,17.71
2023-05-04T14:04:24.410Z,16.95
2023-05-04T14:06:26.192Z,18.19
2023-05-04T14:08:27.830Z,18.97
2023-05-04T14:10:30.952Z,19.03
2023-05-04T14:12:32.560Z,18.76
2023-05-04T14:14:34.172Z,19.82
2023-05-04T14:16:37.463Z,19.89
2023-05-04T14:18:39.239Z,20.83
2023-05-04T14:20:40.867Z,21.16
2023-05-04T14:22:42.499Z,20.52
2023-05-04T14:24:44.199Z,21.13
2023-05-04T14:26:47.360Z,21.61
2023-05-04T14:28:48.956Z,22.03
2023-05-04T14:30:50.840Z,22.36
2023-05-04T14:32:54.053Z,22.48
2023-05-04T14:35:00.365Z,21.94
2023-05-04T14:37:02.054Z,21.84
2023-05-04T14:39:04.010Z,21.56
2023-05-04T14:41:06.271Z,22.30
2023-05-04T14:43:09.302Z,21.64
2023-05-04T14:45:11.831Z,23.49
2023-05-04T14:47:13.505Z,23.26
2023-05-04T14:49:21.713Z,22.05
2023-05-04T14:51:30.662Z,22.92
2023-05-04T14:53:32.630Z,22.60
2023-05-04T14:55:34.261Z,23.60
2023-05-04T14:57:35.877Z,24.01
2023-05-04T14:59:39.114Z,23.11
2023-05-04T15:01:40.833Z,24.76
2023-05-04T15:03:42.851Z,22.93
2023-05-04T15:05:44.947Z,23.15
2023-05-04T15:07:49.749Z,22.86
2023-05-04T15:09:54.545Z,22.34
2023-05-04T15:11:58.105Z,22.89
2023-05-04T15:13:59.875Z,22.33
2023-05-04T15:16:03.104Z,22.77
2023-05-04T15:18:05.156Z,24.59
2023-05-04T15:20:08.392Z,24.03
2023-05-04T15:22:10.366Z,23.56
2023-05-04T15:24:12.033Z,23.61
2023-05-04T15:26:13.716Z,23.16
2023-05-04T15:28:15.350Z,23.49
2023-05-04T15:30:17.777Z,24.01
2023-05-04T15:32:20.922Z,24.79
2023-05-04T15:34:22.569Z,24.36
2023-05-04T15:36:24.186Z,22.97
2023-05-04T15:38:26.114Z,23.37
2023-05-04T15:40:28.320Z,23.99
2023-05-04T15:42:33.114Z,22.96
2023-05-04T15:44:34.711Z,23.72
2023-05-04T15:46:36.433Z,24.03
2023-05-04T15:48:41.172Z,23.57
2023-05-04T15:50:42.831Z,22.37
2023-05-04T15:52:49.215Z,22.37
2023-05-04T15:54:50.941Z,22.94
2023-05-04T15:56:55.876Z,22.88
2023-05-04T15:58:57.509Z,23.04
2023-05-04T16:00:59.225Z,24.19
2023-05-04T16:03:00.980Z,23.92
2023-05-04T16:05:04.182Z,22.77
2023-05-04T16:07:06.026Z,22.65
2023-05-04T16:09:14.356Z,22.94
2023-05-04T16:11:16.138Z,23.76
2023-05-04T16:13:18.107Z,23.04
2023-05-04T16:15:19.970Z,21.82
2023-05-04T16:17:22.328Z,22.17
2023-05-04T16:19:24.192Z,22.21
2023-05-04T16:21:33.022Z,22.17
2023-05-04T16:23:34.648Z,22.49
2023-05-04T16:25:38.991Z,23.07
2023-05-04T16:27:44.097Z,22.94
2023-05-04T16:29:46.119Z,22.86
2023-05-04T16:31:47.941Z,23.62
2023-05-04T16:33:51.992Z,23.24
2023-05-04T16:35:53.951Z,23.87
2023-05-04T16:37:57.254Z,23.65
2023-05-04T16:39:59.002Z,23.84
2023-05-04T16:42:00.857Z,24.30
2023-05-04T16:44:02.560Z,24.82
2023-05-04T16:46:04.559Z,24.73
2023-05-04T16:48:06.655Z,24.87
2023-05-04T16:50:09.208Z,24.77
2023-05-04T16:52:10.897Z,24.68
2023-05-04T16:54:18.353Z,24.14
2023-05-04T16:56:19.920Z,23.32
2023-05-04T16:58:25.051Z,24.22
2023-05-04T17:00:36.066Z,24.82
2023-05-04T17:02:37.743Z,25.04
2023-05-04T17:04:39.384Z,24.90
2023-05-04T17:06:43.525Z,25.11
2023-05-04T17:08:45.325Z,25.36
2023-05-04T17:10:48.312Z,25.06
2023-05-04T17:13:00.925Z,25.70
2023-05-04T17:15:08.029Z,25.90
2023-05-04T17:17:13.720Z,25.87
2023-05-04T17:19:15.505Z,26.32
2023-05-04T17:21:17.126Z,26.16
2023-05-04T17:23:18.715Z,26.28
2023-05-04T17:25:20.285Z,26.41
2023-05-04T17:27:23.371Z,25.99
2023-05-04T17:29:28.094Z,25.74
2023-05-04T17:31:29.937Z,26.04
2023-05-04T17:33:33.453Z,25.92
2023-05-04T17:35:35.364Z,25.38
2023-05-04T17:37:36.972Z,26.39
2023-05-04T17:39:38.574Z,26.30
2023-05-04T17:41:40.229Z,25.63
2023-05-04T17:43:43.251Z,25.78
2023-05-04T17:45:54.289Z,25.83
2023-05-04T17:47:57.486Z,26.32
2023-05-04T17:49:59.080Z,26.22
2023-05-04T17:52:00.912Z,26.39
2023-05-04T17:54:02.755Z,26.38
2023-05-04T17:56:04.955Z,26.40
2023-05-04T17:58:06.869Z,26.35
2023-05-04T18:00:11.460Z,26.44
2023-05-04T18:02:13.262Z,26.56
2023-05-04T18:04:15.210Z,26.28
2023-05-04T18:06:16.756Z,26.43
2023-05-04T18:08:18.315Z,26.25
2023-05-04T18:10:21.048Z,25.94
2023-05-04T18:12:26.036Z,25.71
2023-05-04T18:14:29.564Z,26.32
2023-05-04T18:16:32.918Z,26.22
2023-05-04T18:18:35.203Z,26.40
2023-05-04T18:20:37.176Z,26.50
2023-05-04T18:22:38.864Z,27.31
2023-05-04T18:24:40.553Z,27.00
2023-05-04T18:26:42.506Z,27.25
2023-05-04T18:28:44.391Z,26.25
2023-05-04T18:30:46.396Z,26.28
2023-05-04T18:32:49.429Z,27.17
2023-05-04T18:34:51.380Z,27.60
2023-05-04T18:36:53.264Z,26.94
2023-05-04T18:38:54.920Z,27.02
2023-05-04T18:40:56.761Z,27.33
2023-05-04T18:42:58.502Z,26.70
2023-05-04T18:45:01.358Z,26.84
2023-05-04T18:47:03.126Z,26.41
2023-05-04T18:49:07.670Z,26.48
2023-05-04T18:51:09.461Z,27.28
2023-05-04T18:53:15.490Z,28.04
2023-05-04T18:55:19.110Z,29.50
2023-05-04T18:57:20.775Z,26.88
2023-05-04T18:59:22.428Z,26.74
2023-05-04T19:01:24.548Z,27.78
2023-05-04T19:03:26.336Z,27.14
2023-05-04T19:05:31.627Z,26.83
2023-05-04T19:07:35.022Z,27.86
2023-05-04T19:09:36.760Z,28.76
2023-05-04T19:11:38.738Z,29.04
2023-05-04T19:13:42.985Z,30.33
2023-05-04T19:15:45.171Z,28.69
2023-05-04T19:17:47.209Z,29.26
2023-05-04T19:19:49.345Z,29.37
2023-05-04T19:21:52.713Z,29.65
2023-05-04T19:23:54.394Z,28.07
2023-05-04T19:25:56.315Z,28.25
2023-05-04T19:27:58.253Z,28.24
2023-05-04T19:30:00.006Z,27.97
2023-05-04T19:32:12.066Z,28.12
2023-05-04T19:34:18.081Z,27.89
2023-05-04T19:36:20.129Z,27.88
2023-05-04T19:38:25.464Z,27.90
2023-05-04T19:40:27.145Z,28.05
2023-05-04T19:42:28.771Z,27.83
2023-05-04T19:44:32.673Z,28.43
2023-05-04T19:46:34.365Z,28.09
2023-05-04T19:48:38.433Z,28.05
2023-05-04T19:50:40.131Z,28.51
2023-05-04T19:52:42.058Z,28.49
2023-05-04T19:54:47.578Z,28.39
2023-05-04T19:56:49.199Z,28.82
2023-05-04T19:58:51.194Z,28.47
2023-05-04T20:00:53.000Z,28.84
2023-05-04T20:02:55.075Z,30.18
2023-05-04T20:04:56.956Z,28.84
2023-05-04T20:06:59.109Z,28.77
2023-05-04T20:09:00.875Z,29.03
2023-05-04T20:11:06.331Z,28.98
2023-05-04T20:13:08.647Z,29.11
2023-05-04T20:15:10.382Z,29.09
2023-05-04T20:17:13.811Z,29.26
2023-05-04T20:19:17.617Z,29.49
2023-05-04T20:21:19.316Z,29.47
2023-05-04T20:23:21.377Z,29.23
2023-05-04T20:25:23.357Z,29.57
2023-05-04T20:27:26.809Z,29.44
2023-05-04T20:29:28.900Z,29.79
2023-05-04T20:31:30.612Z,29.40
2023-05-04T20:33:32.875Z,29.70
2023-05-04T20:35:34.733Z,30.21
2023-05-04T20:37:36.375Z,30.82
2023-05-04T20:39:38.105Z,31.56
2023-05-04T20:41:39.705Z,31.95
2023-05-04T20:43:42.697Z,32.08
2023-05-04T20:45:44.438Z,32.28
2023-05-04T20:47:46.221Z,32.68
2023-05-04T20:49:49.516Z,33.10
2023-05-04T20:51:51.216Z,32.98
2023-05-04T20:53:52.874Z,33.54
2023-05-04T20:55:54.910Z,33.62
2023-05-04T20:57:57.054Z,33.63
2023-05-04T21:00:01.224Z,34.00
2023-05-04T21:02:03.366Z,34.28
2023-05-04T21:04:05.850Z,34.43
2023-05-04T21:06:08.153Z,34.39
2023-05-04T21:08:12.254Z,33.96
2023-05-04T21:10:13.897Z,34.63
2023-05-04T21:12:15.605Z,34.36
2023-05-04T21:14:18.108Z,34.48
2023-05-04T21:16:21.292Z,34.65
2023-05-04T21:18:23.604Z,34.99
2023-05-04T21:20:25.458Z,34.81
2023-05-04T21:22:27.326Z,35.13
2023-05-04T21:24:28.909Z,35.56
2023-05-04T21:26:30.567Z,35.82
2023-05-04T21:28:32.734Z,35.52
2023-05-04T21:30:34.755Z,36.13
2023-05-04T21:32:38.255Z,36.18
2023-05-04T21:34:39.861Z,36.02
2023-05-04T21:36:42.128Z,36.50
2023-05-04T21:38:43.866Z,36.91
2023-05-04T21:40:45.652Z,36.67
2023-05-04T21:42:48.039Z,36.82
2023-05-04T21:44:53.866Z,36.73
2023-05-04T21:46:56.145Z,37.41
2023-05-04T21:48:59.202Z,36.93
2023-05-04T21:51:01.270Z,37.11
2023-05-04T21:53:03.070Z,37.43
2023-05-04T21:55:05.552Z,37.09
2023-05-04T21:57:07.125Z,36.92
2023-05-04T21:59:08.793Z,37.22
2023-05-04T22:01:15.460Z,36.48
2023-05-04T22:03:17.163Z,36.68
2023-05-04T22:05:21.956Z,37.46
2023-05-04T22:07:23.635Z,37.61
2023-05-04T22:09:26.150Z,37.29
2023-05-04T22:11:27.942Z,37.75
2023-05-04T22:13:29.549Z,37.96
2023-05-04T22:15:38.395Z,37.99
2023-05-04T22:17:48.256Z,38.15
2023-05-04T22:19:49.871Z,38.19
2023-05-04T22:21:52.941Z,38.58
2023-05-04T22:23:54.782Z,38.75
2023-05-04T22:25:56.507Z,39.09
2023-05-04T22:27:58.292Z,39.16
2023-05-04T22:29:59.946Z,39.04
2023-05-04T22:32:01.556Z,39.56
2023-05-04T22:34:03.281Z,38.94
2023-05-04T22:36:05.466Z,39.04
2023-05-04T22:38:08.841Z,38.86
2023-05-04T22:40:11.300Z,39.65
2023-05-04T22:42:13.029Z,39.22
2023-05-04T22:44:14.544Z,39.40
2023-05-04T22:46:17.471Z,39.39
2023-05-04T22:48:19.171Z,39.58
2023-05-04T22:50:21.290Z,39.42
2023-05-04T22:52:23.914Z,39.23
2023-05-04T22:54:27.230Z,38.74
2023-05-04T22:56:28.811Z,39.39
2023-05-04T22:58:30.653Z,38.93
2023-05-04T23:00:32.741Z,39.32
2023-05-04T23:02:34.525Z,39.73
2023-05-04T23:04:36.263Z,40.11
2023-05-04T23:06:38.210Z,40.08
2023-05-04T23:08:39.847Z,39.83
2023-05-04T23:10:46.044Z,39.92
2023-05-04T23:12:47.976Z,40.08
2023-05-04T23:14:50.414Z,39.63
2023-05-04T23:16:52.454Z,39.83
2023-05-04T23:18:54.182Z,40.19
2023-05-04T23:20:55.937Z,40.58
2023-05-04T23:22:57.681Z,40.28
2023-05-04T23:24:59.617Z,40.13
2023-05-04T23:27:03.041Z,40.61
2023-05-04T23:29:05.099Z,40.55
2023-05-04T23:31:07.162Z,40.49
2023-05-04T23:33:09.052Z,40.20
2023-05-04T23:35:10.860Z,40.18
2023-05-04T23:37:12.603Z,39.79
2023-05-04T23:39:14.302Z,40.22
2023-05-04T23:41:17.221Z,39.06
2023-05-04T23:43:21.443Z,40.11
2023-05-04T23:45:23.106Z,40.15
2023-05-04T23:47:24.966Z,39.46
2023-05-04T23:49:26.807Z,39.78
2023-05-04T23:51:28.464Z,40.27
2023-05-04T23:53:30.521Z,40.32
2023-05-04T23:57:33.916Z,40.21
2023-05-04T23:59:36.964Z,40.48
